sensor_id;sensor_type;location;lat;lon;timestamp;P1;durP1;ratioP1;P2;durP2;ratioP2
21213;SDS011;10764;50.850;2.904;2022-07-22T00:00:23;1217.40;;;999.90;;
21213;SDS011;10764;50.850;2.904;2022-07-22T00:02:50;1216.50;;;999.90;;
21213;SDS011;10764;50.850;2.904;2022-07-22T00:05:17;1214.88;;;999.90;;
21213;SDS011;10764;50.850;2.904;2022-07-22T00:07:44;1210.18;;;999.90;;
21213;SDS011;10764;50.850;2.904;2022-07-22T00:10:11;1209.65;;;999.90;;
21213;SDS011;10764;50.850;2.904;2022-07-22T00:12:39;1207.87;;;999.90;;
21213;SDS011;10764;50.850;2.904;2022-07-22T00:15:06;1204.53;;;999.90;;
21213;SDS011;10764;50.850;2.904;2022-07-22T00:17:34;1215.53;;;999.90;;
21213;SDS011;10764;50.850;2.904;2022-07-22T00:20:03;1209.82;;;999.90;;
21213;SDS011;10764;50.850;2.904;2022-07-22T00:22:31;1207.90;;;999.90;;
21213;SDS011;10764;50.850;2.904;2022-07-22T00:24:58;1210.53;;;999.90;;
21213;SDS011;10764;50.850;2.904;2022-07-22T00:27:25;1217.50;;;999.90;;
21213;SDS011;10764;50.850;2.904;2022-07-22T00:29:51;1230.65;;;999.90;;
21213;SDS011;10764;50.850;2.904;2022-07-22T00:32:18;1229.72;;;999.90;;
21213;SDS011;10764;50.850;2.904;2022-07-22T00:34:47;1232.72;;;999.90;;
21213;SDS011;10764;50.850;2.904;2022-07-22T00:37:14;1229.72;;;999.90;;
21213;SDS011;10764;50.850;2.904;2022-07-22T00:39:41;1227.82;;;999.90;;
21213;SDS011;10764;50.850;2.904;2022-07-22T00:42:08;1225.03;;;999.90;;
21213;SDS011;10764;50.850;2.904;2022-07-22T00:44:36;1222.13;;;999.90;;
21213;SDS011;10764;50.850;2.904;2022-07-22T00:47:05;1222.70;;;999.90;;
21213;SDS011;10764;50.850;2.904;2022-07-22T00:49:32;1226.70;;;999.90;;
21213;SDS011;10764;50.850;2.904;2022-07-22T00:51:59;1223.78;;;999.90;;
21213;SDS011;10764;50.850;2.904;2022-07-22T00:54:26;1219.93;;;999.90;;
21213;SDS011;10764;50.850;2.904;2022-07-22T00:56:54;1224.45;;;999.90;;
21213;SDS011;10764;50.850;2.904;2022-07-22T00:59:21;1225.25;;;999.90;;
21213;SDS011;10764;50.850;2.904;2022-07-22T01:01:48;1224.75;;;999.90;;
21213;SDS011;10764;50.850;2.904;2022-07-22T01:04:15;1225.93;;;999.90;;
21213;SDS011;10764;50.850;2.904;2022-07-22T01:06:43;1227.13;;;999.90;;
21213;SDS011;10764;50.850;2.904;2022-07-22T01:09:11;1226.10;;;999.90;;
21213;SDS011;10764;50.850;2.904;2022-07-22T01:11:40;1230.53;;;999.90;;
21213;SDS011;10764;50.850;2.904;2022-07-22T01:14:07;1231.70;;;999.90;;
21213;SDS011;10764;50.850;2.904;2022-07-22T01:16:34;1225.88;;;999.90;;
21213;SDS011;10764;50.850;2.904;2022-07-22T01:19:02;1230.35;;;999.90;;
21213;SDS011;10764;50.850;2.904;2022-07-22T01:21:30;1225.00;;;999.90;;
21213;SDS011;10764;50.850;2.904;2022-07-22T01:23:58;1224.43;;;999.90;;
21213;SDS011;10764;50.850;2.904;2022-07-22T01:26:25;1223.88;;;999.90;;
21213;SDS011;10764;50.850;2.904;2022-07-22T01:28:52;1222.40;;;999.90;;
21213;SDS011;10764;50.850;2.904;2022-07-22T01:31:20;1219.47;;;999.90;;
21213;SDS011;10764;50.850;2.904;2022-07-22T01:33:47;1218.60;;;999.90;;
21213;SDS011;10764;50.850;2.904;2022-07-22T01:36:15;1218.50;;;999.90;;
21213;SDS011;10764;50.850;2.904;2022-07-22T01:38:42;1218.68;;;999.90;;
21213;SDS011;10764;50.850;2.904;2022-07-22T01:41:09;1222.53;;;999.90;;
21213;SDS011;10764;50.850;2.904;2022-07-22T01:43:37;1223.10;;;999.90;;
21213;SDS011;10764;50.850;2.904;2022-07-22T01:46:05;1223.78;;;999.90;;
21213;SDS011;10764;50.850;2.904;2022-07-22T01:48:34;1220.10;;;999.90;;
21213;SDS011;10764;50.850;2.904;2022-07-22T01:51:02;1218.28;;;999.90;;
21213;SDS011;10764;50.850;2.904;2022-07-22T01:53:29;1220.90;;;999.90;;
21213;SDS011;10764;50.850;2.904;2022-07-22T01:55:56;1220.07;;;999.90;;
21213;SDS011;10764;50.850;2.904;2022-07-22T01:58:23;1220.25;;;999.90;;
21213;SDS011;10764;50.850;2.904;2022-07-22T02:00:50;1217.30;;;999.90;;
21213;SDS011;10764;50.850;2.904;2022-07-22T02:03:19;1221.07;;;999.90;;
21213;SDS011;10764;50.850;2.904;2022-07-22T02:05:46;1219.90;;;999.90;;
21213;SDS011;10764;50.850;2.904;2022-07-22T02:08:21;1221.07;;;999.90;;
21213;SDS011;10764;50.850;2.904;2022-07-22T02:11:09;1219.63;;;999.90;;
21213;SDS011;10764;50.850;2.904;2022-07-22T02:13:48;1222.63;;;999.90;;
21213;SDS011;10764;50.850;2.904;2022-07-22T02:16:15;1220.82;;;999.90;;
21213;SDS011;10764;50.850;2.904;2022-07-22T02:18:46;1213.90;;;999.90;;
21213;SDS011;10764;50.850;2.904;2022-07-22T02:21:13;1218.00;;;999.90;;
21213;SDS011;10764;50.850;2.904;2022-07-22T02:23:40;1215.50;;;999.90;;
21213;SDS011;10764;50.850;2.904;2022-07-22T02:26:08;1215.85;;;999.90;;
21213;SDS011;10764;50.850;2.904;2022-07-22T02:28:35;1213.10;;;999.90;;
21213;SDS011;10764;50.850;2.904;2022-07-22T02:31:02;1218.47;;;999.90;;
21213;SDS011;10764;50.850;2.904;2022-07-22T02:33:29;1215.35;;;999.90;;
21213;SDS011;10764;50.850;2.904;2022-07-22T02:35:58;1213.78;;;999.90;;
21213;SDS011;10764;50.850;2.904;2022-07-22T02:38:26;1213.28;;;999.90;;
21213;SDS011;10764;50.850;2.904;2022-07-22T02:40:53;1213.47;;;999.90;;
21213;SDS011;10764;50.850;2.904;2022-07-22T02:43:20;1208.95;;;999.90;;
21213;SDS011;10764;50.850;2.904;2022-07-22T02:45:47;1212.85;;;999.90;;
21213;SDS011;10764;50.850;2.904;2022-07-22T02:48:14;1216.80;;;999.90;;
21213;SDS011;10764;50.850;2.904;2022-07-22T02:50:45;1223.07;;;999.90;;
21213;SDS011;10764;50.850;2.904;2022-07-22T02:53:17;1217.75;;;999.90;;
21213;SDS011;10764;50.850;2.904;2022-07-22T02:55:44;1218.55;;;999.90;;
21213;SDS011;10764;50.850;2.904;2022-07-22T02:58:11;1228.23;;;999.90;;
21213;SDS011;10764;50.850;2.904;2022-07-22T03:00:41;1224.85;;;999.90;;
21213;SDS011;10764;50.850;2.904;2022-07-22T03:03:08;1223.00;;;999.90;;
21213;SDS011;10764;50.850;2.904;2022-07-22T03:05:35;1223.30;;;999.90;;
21213;SDS011;10764;50.850;2.904;2022-07-22T03:08:25;1221.57;;;999.90;;
21213;SDS011;10764;50.850;2.904;2022-07-22T03:10:52;1219.88;;;999.90;;
21213;SDS011;10764;50.850;2.904;2022-07-22T03:13:20;1223.07;;;999.90;;
21213;SDS011;10764;50.850;2.904;2022-07-22T03:15:47;1219.23;;;999.90;;
21213;SDS011;10764;50.850;2.904;2022-07-22T03:18:14;1220.03;;;999.90;;
21213;SDS011;10764;50.850;2.904;2022-07-22T03:20:41;1214.23;;;999.90;;
21213;SDS011;10764;50.850;2.904;2022-07-22T03:23:08;1216.72;;;999.90;;
21213;SDS011;10764;50.850;2.904;2022-07-22T03:25:36;1211.03;;;999.90;;
21213;SDS011;10764;50.850;2.904;2022-07-22T03:28:05;1212.78;;;999.90;;
21213;SDS011;10764;50.850;2.904;2022-07-22T03:30:33;1213.85;;;999.90;;
21213;SDS011;10764;50.850;2.904;2022-07-22T03:33:00;1216.60;;;999.90;;
21213;SDS011;10764;50.850;2.904;2022-07-22T03:35:30;1214.30;;;999.90;;
21213;SDS011;10764;50.850;2.904;2022-07-22T03:37:58;1218.15;;;999.90;;
21213;SDS011;10764;50.850;2.904;2022-07-22T03:40:27;1215.13;;;999.90;;
21213;SDS011;10764;50.850;2.904;2022-07-22T03:42:55;1222.90;;;999.90;;
21213;SDS011;10764;50.850;2.904;2022-07-22T03:45:23;1217.63;;;999.90;;
21213;SDS011;10764;50.850;2.904;2022-07-22T03:47:50;1217.82;;;999.90;;
21213;SDS011;10764;50.850;2.904;2022-07-22T03:50:18;1222.00;;;999.90;;
21213;SDS011;10764;50.850;2.904;2022-07-22T03:52:45;1216.60;;;999.90;;
21213;SDS011;10764;50.850;2.904;2022-07-22T03:55:14;1214.30;;;999.90;;
21213;SDS011;10764;50.850;2.904;2022-07-22T03:57:45;1216.97;;;999.90;;
21213;SDS011;10764;50.850;2.904;2022-07-22T04:00:20;1214.25;;;999.90;;
21213;SDS011;10764;50.850;2.904;2022-07-22T04:02:48;1215.25;;;999.90;;
21213;SDS011;10764;50.850;2.904;2022-07-22T04:05:34;1214.45;;;999.90;;
21213;SDS011;10764;50.850;2.904;2022-07-22T04:08:01;1218.72;;;999.90;;
21213;SDS011;10764;50.850;2.904;2022-07-22T04:10:29;1216.43;;;999.90;;
21213;SDS011;10764;50.850;2.904;2022-07-22T04:12:56;1213.55;;;999.90;;
21213;SDS011;10764;50.850;2.904;2022-07-22T04:15:32;1214.43;;;999.90;;
21213;SDS011;10764;50.850;2.904;2022-07-22T04:17:59;1214.87;;;999.90;;
21213;SDS011;10764;50.850;2.904;2022-07-22T04:20:26;1212.28;;;999.90;;
21213;SDS011;10764;50.850;2.904;2022-07-22T04:23:31;1214.68;;;999.90;;
21213;SDS011;10764;50.850;2.904;2022-07-22T04:26:11;1211.93;;;999.90;;
21213;SDS011;10764;50.850;2.904;2022-07-22T04:28:38;1215.93;;;999.90;;
21213;SDS011;10764;50.850;2.904;2022-07-22T04:31:05;1217.45;;;999.90;;
21213;SDS011;10764;50.850;2.904;2022-07-22T04:33:34;1211.95;;;999.90;;
21213;SDS011;10764;50.850;2.904;2022-07-22T04:36:01;1213.72;;;999.90;;
21213;SDS011;10764;50.850;2.904;2022-07-22T04:38:28;1209.90;;;999.90;;
21213;SDS011;10764;50.850;2.904;2022-07-22T04:41:00;1216.32;;;999.90;;
21213;SDS011;10764;50.850;2.904;2022-07-22T04:43:27;1221.03;;;999.90;;
21213;SDS011;10764;50.850;2.904;2022-07-22T04:45:55;1221.32;;;999.90;;
21213;SDS011;10764;50.850;2.904;2022-07-22T04:48:25;1217.97;;;999.90;;
21213;SDS011;10764;50.850;2.904;2022-07-22T04:50:53;1217.38;;;999.90;;
21213;SDS011;10764;50.850;2.904;2022-07-22T04:53:20;1215.82;;;999.90;;
21213;SDS011;10764;50.850;2.904;2022-07-22T04:56:07;1214.20;;;999.90;;
21213;SDS011;10764;50.850;2.904;2022-07-22T04:58:34;1218.35;;;999.90;;
21213;SDS011;10764;50.850;2.904;2022-07-22T05:01:01;1220.07;;;999.90;;
21213;SDS011;10764;50.850;2.904;2022-07-22T05:03:28;1221.50;;;999.90;;
21213;SDS011;10764;50.850;2.904;2022-07-22T05:05:55;1214.40;;;999.90;;
21213;SDS011;10764;50.850;2.904;2022-07-22T05:08:29;1210.78;;;999.90;;
21213;SDS011;10764;50.850;2.904;2022-07-22T05:10:57;1210.57;;;999.90;;
21213;SDS011;10764;50.850;2.904;2022-07-22T05:13:24;1214.28;;;999.90;;
21213;SDS011;10764;50.850;2.904;2022-07-22T05:15:51;1217.72;;;999.90;;
21213;SDS011;10764;50.850;2.904;2022-07-22T05:18:18;1215.90;;;999.90;;
21213;SDS011;10764;50.850;2.904;2022-07-22T05:20:45;1212.93;;;999.90;;
21213;SDS011;10764;50.850;2.904;2022-07-22T05:23:12;1208.82;;;999.90;;
21213;SDS011;10764;50.850;2.904;2022-07-22T05:25:40;1208.20;;;999.90;;
21213;SDS011;10764;50.850;2.904;2022-07-22T05:28:06;1208.22;;;999.90;;
21213;SDS011;10764;50.850;2.904;2022-07-22T05:30:37;1213.60;;;999.90;;
21213;SDS011;10764;50.850;2.904;2022-07-22T05:33:05;1223.87;;;999.90;;
21213;SDS011;10764;50.850;2.904;2022-07-22T05:35:56;1221.50;;;999.90;;
21213;SDS011;10764;50.850;2.904;2022-07-22T05:38:31;1217.82;;;999.90;;
21213;SDS011;10764;50.850;2.904;2022-07-22T05:40:59;1206.35;;;999.90;;
21213;SDS011;10764;50.850;2.904;2022-07-22T05:43:26;1200.88;;;999.90;;
21213;SDS011;10764;50.850;2.904;2022-07-22T05:45:53;1208.07;;;999.90;;
21213;SDS011;10764;50.850;2.904;2022-07-22T05:48:21;1205.27;;;999.90;;
21213;SDS011;10764;50.850;2.904;2022-07-22T05:50:48;1202.93;;;999.90;;
21213;SDS011;10764;50.850;2.904;2022-07-22T05:53:15;1204.47;;;999.90;;
21213;SDS011;10764;50.850;2.904;2022-07-22T05:55:42;1210.03;;;999.90;;
21213;SDS011;10764;50.850;2.904;2022-07-22T05:58:09;1209.23;;;999.90;;
21213;SDS011;10764;50.850;2.904;2022-07-22T06:00:36;1204.13;;;999.90;;
21213;SDS011;10764;50.850;2.904;2022-07-22T06:03:05;1203.43;;;999.90;;
21213;SDS011;10764;50.850;2.904;2022-07-22T06:05:33;1208.10;;;999.90;;
21213;SDS011;10764;50.850;2.904;2022-07-22T06:08:06;1200.35;;;999.90;;
21213;SDS011;10764;50.850;2.904;2022-07-22T06:10:41;1203.28;;;999.90;;
21213;SDS011;10764;50.850;2.904;2022-07-22T06:13:08;1200.72;;;999.90;;
21213;SDS011;10764;50.850;2.904;2022-07-22T06:15:37;1200.75;;;999.90;;
21213;SDS011;10764;50.850;2.904;2022-07-22T06:18:05;1208.38;;;999.90;;
21213;SDS011;10764;50.850;2.904;2022-07-22T06:20:32;1213.30;;;999.90;;
21213;SDS011;10764;50.850;2.904;2022-07-22T06:22:59;1207.70;;;999.90;;
21213;SDS011;10764;50.850;2.904;2022-07-22T06:25:26;1206.43;;;999.90;;
21213;SDS011;10764;50.850;2.904;2022-07-22T06:28:31;1207.78;;;999.90;;
21213;SDS011;10764;50.850;2.904;2022-07-22T06:30:59;1199.30;;;999.90;;
21213;SDS011;10764;50.850;2.904;2022-07-22T06:33:27;1219.63;;;999.90;;
21213;SDS011;10764;50.850;2.904;2022-07-22T06:35:55;1209.43;;;999.90;;
21213;SDS011;10764;50.850;2.904;2022-07-22T06:38:23;1211.55;;;999.90;;
21213;SDS011;10764;50.850;2.904;2022-07-22T06:41:31;1211.13;;;999.90;;
21213;SDS011;10764;50.850;2.904;2022-07-22T06:44:01;1214.35;;;999.90;;
21213;SDS011;10764;50.850;2.904;2022-07-22T06:46:44;1214.63;;;999.90;;
21213;SDS011;10764;50.850;2.904;2022-07-22T06:49:11;1212.65;;;999.90;;
21213;SDS011;10764;50.850;2.904;2022-07-22T06:51:41;1219.50;;;999.90;;
21213;SDS011;10764;50.850;2.904;2022-07-22T06:54:09;1215.97;;;999.90;;
21213;SDS011;10764;50.850;2.904;2022-07-22T06:56:36;1223.75;;;999.90;;
21213;SDS011;10764;50.850;2.904;2022-07-22T06:59:04;1223.57;;;999.90;;
21213;SDS011;10764;50.850;2.904;2022-07-22T07:01:31;1221.03;;;999.90;;
21213;SDS011;10764;50.850;2.904;2022-07-22T07:04:00;1222.50;;;999.90;;
21213;SDS011;10764;50.850;2.904;2022-07-22T07:06:27;1219.67;;;999.90;;
21213;SDS011;10764;50.850;2.904;2022-07-22T07:09:06;1216.07;;;999.90;;
21213;SDS011;10764;50.850;2.904;2022-07-22T07:11:34;1227.75;;;999.90;;
21213;SDS011;10764;50.850;2.904;2022-07-22T07:14:08;1224.60;;;999.90;;
21213;SDS011;10764;50.850;2.904;2022-07-22T07:16:35;1210.53;;;999.90;;
21213;SDS011;10764;50.850;2.904;2022-07-22T07:19:02;1214.03;;;999.90;;
21213;SDS011;10764;50.850;2.904;2022-07-22T07:21:31;1216.47;;;999.90;;
21213;SDS011;10764;50.850;2.904;2022-07-22T07:23:58;1217.05;;;999.90;;
21213;SDS011;10764;50.850;2.904;2022-07-22T07:26:26;1220.78;;;999.90;;
21213;SDS011;10764;50.850;2.904;2022-07-22T07:28:53;1214.65;;;999.90;;
21213;SDS011;10764;50.850;2.904;2022-07-22T07:31:32;1214.05;;;999.90;;
21213;SDS011;10764;50.850;2.904;2022-07-22T07:34:04;1221.75;;;999.90;;
21213;SDS011;10764;50.850;2.904;2022-07-22T07:36:31;1226.60;;;999.90;;
21213;SDS011;10764;50.850;2.904;2022-07-22T07:38:58;1222.13;;;999.90;;
21213;SDS011;10764;50.850;2.904;2022-07-22T07:41:26;1225.80;;;999.90;;
21213;SDS011;10764;50.850;2.904;2022-07-22T07:43:53;1221.75;;;999.90;;
21213;SDS011;10764;50.850;2.904;2022-07-22T07:46:20;1207.15;;;999.90;;
21213;SDS011;10764;50.850;2.904;2022-07-22T07:48:47;1215.38;;;999.90;;
21213;SDS011;10764;50.850;2.904;2022-07-22T07:51:15;1208.18;;;999.90;;
21213;SDS011;10764;50.850;2.904;2022-07-22T07:53:42;1212.40;;;999.90;;
21213;SDS011;10764;50.850;2.904;2022-07-22T07:56:10;1217.75;;;999.90;;
21213;SDS011;10764;50.850;2.904;2022-07-22T07:58:37;1223.20;;;999.90;;
21213;SDS011;10764;50.850;2.904;2022-07-22T08:01:06;1224.70;;;999.90;;
21213;SDS011;10764;50.850;2.904;2022-07-22T08:03:34;1226.45;;;999.90;;
21213;SDS011;10764;50.850;2.904;2022-07-22T08:06:02;1223.43;;;999.90;;
21213;SDS011;10764;50.850;2.904;2022-07-22T08:08:29;1224.53;;;999.90;;
21213;SDS011;10764;50.850;2.904;2022-07-22T08:11:01;1224.57;;;999.90;;
21213;SDS011;10764;50.850;2.904;2022-07-22T08:13:31;1225.60;;;999.90;;
21213;SDS011;10764;50.850;2.904;2022-07-22T08:16:02;1228.75;;;999.90;;
21213;SDS011;10764;50.850;2.904;2022-07-22T08:18:35;1230.83;;;999.90;;
21213;SDS011;10764;50.850;2.904;2022-07-22T08:21:02;1231.10;;;999.90;;
21213;SDS011;10764;50.850;2.904;2022-07-22T08:23:38;1235.95;;;999.90;;
21213;SDS011;10764;50.850;2.904;2022-07-22T08:26:06;1238.70;;;999.90;;
21213;SDS011;10764;50.850;2.904;2022-07-22T08:28:32;1236.95;;;999.90;;
21213;SDS011;10764;50.850;2.904;2022-07-22T08:30:59;1239.38;;;999.90;;
21213;SDS011;10764;50.850;2.904;2022-07-22T08:33:31;1244.30;;;999.90;;
21213;SDS011;10764;50.850;2.904;2022-07-22T08:35:58;1242.70;;;999.90;;
21213;SDS011;10764;50.850;2.904;2022-07-22T08:38:25;1243.72;;;999.90;;
21213;SDS011;10764;50.850;2.904;2022-07-22T08:40:54;1239.88;;;999.90;;
21213;SDS011;10764;50.850;2.904;2022-07-22T08:43:30;1237.55;;;999.90;;
21213;SDS011;10764;50.850;2.904;2022-07-22T08:46:01;1235.53;;;999.90;;
21213;SDS011;10764;50.850;2.904;2022-07-22T08:48:32;1237.00;;;999.90;;
21213;SDS011;10764;50.850;2.904;2022-07-22T08:51:21;1238.77;;;999.90;;
21213;SDS011;10764;50.850;2.904;2022-07-22T08:54:05;1237.85;;;999.90;;
21213;SDS011;10764;50.850;2.904;2022-07-22T08:56:32;1238.07;;;999.90;;
21213;SDS011;10764;50.850;2.904;2022-07-22T08:58:59;1238.80;;;999.90;;
21213;SDS011;10764;50.850;2.904;2022-07-22T09:01:26;1238.53;;;999.90;;
21213;SDS011;10764;50.850;2.904;2022-07-22T09:03:55;1237.40;;;999.90;;
21213;SDS011;10764;50.850;2.904;2022-07-22T09:06:29;1236.90;;;999.90;;
21213;SDS011;10764;50.850;2.904;2022-07-22T09:09:01;1237.72;;;999.90;;
21213;SDS011;10764;50.850;2.904;2022-07-22T09:11:49;1235.63;;;999.90;;
21213;SDS011;10764;50.850;2.904;2022-07-22T09:14:50;1235.22;;;999.90;;
21213;SDS011;10764;50.850;2.904;2022-07-22T09:17:54;1240.53;;;999.90;;
21213;SDS011;10764;50.850;2.904;2022-07-22T09:20:46;1230.68;;;999.90;;
21213;SDS011;10764;50.850;2.904;2022-07-22T09:23:38;1234.25;;;999.90;;
21213;SDS011;10764;50.850;2.904;2022-07-22T09:26:06;1238.20;;;999.90;;
21213;SDS011;10764;50.850;2.904;2022-07-22T09:28:54;1236.05;;;999.90;;
21213;SDS011;10764;50.850;2.904;2022-07-22T09:31:30;1236.38;;;999.90;;
21213;SDS011;10764;50.850;2.904;2022-07-22T09:34:28;1235.70;;;999.90;;
21213;SDS011;10764;50.850;2.904;2022-07-22T09:37:02;1235.68;;;999.90;;
21213;SDS011;10764;50.850;2.904;2022-07-22T09:39:31;1233.60;;;999.90;;
21213;SDS011;10764;50.850;2.904;2022-07-22T09:42:01;1235.22;;;999.90;;
21213;SDS011;10764;50.850;2.904;2022-07-22T09:44:30;1234.82;;;999.90;;
21213;SDS011;10764;50.850;2.904;2022-07-22T09:47:02;1234.72;;;999.90;;
21213;SDS011;10764;50.850;2.904;2022-07-22T09:49:47;1237.30;;;999.90;;
21213;SDS011;10764;50.850;2.904;2022-07-22T09:52:40;1240.03;;;999.90;;
21213;SDS011;10764;50.850;2.904;2022-07-22T09:55:14;1234.10;;;999.90;;
21213;SDS011;10764;50.850;2.904;2022-07-22T09:57:43;1232.43;;;999.90;;
21213;SDS011;10764;50.850;2.904;2022-07-22T10:00:12;1236.28;;;999.90;;
21213;SDS011;10764;50.850;2.904;2022-07-22T10:02:52;1239.43;;;999.90;;
21213;SDS011;10764;50.850;2.904;2022-07-22T10:05:28;1235.07;;;999.90;;
21213;SDS011;10764;50.850;2.904;2022-07-22T10:07:56;1232.25;;;999.90;;
21213;SDS011;10764;50.850;2.904;2022-07-22T10:10:26;1233.40;;;999.90;;
21213;SDS011;10764;50.850;2.904;2022-07-22T10:12:55;1233.75;;;999.90;;
21213;SDS011;10764;50.850;2.904;2022-07-22T10:15:24;1234.30;;;999.90;;
21213;SDS011;10764;50.850;2.904;2022-07-22T10:18:02;1231.63;;;999.90;;
21213;SDS011;10764;50.850;2.904;2022-07-22T10:20:35;1233.78;;;999.90;;
21213;SDS011;10764;50.850;2.904;2022-07-22T10:23:03;1231.32;;;999.90;;
21213;SDS011;10764;50.850;2.904;2022-07-22T10:25:50;1236.15;;;999.90;;
21213;SDS011;10764;50.850;2.904;2022-07-22T10:28:29;1234.68;;;999.90;;
21213;SDS011;10764;50.850;2.904;2022-07-22T10:33:44;1240.30;;;999.90;;
21213;SDS011;10764;50.850;2.904;2022-07-22T10:36:13;1234.75;;;999.90;;
21213;SDS011;10764;50.850;2.904;2022-07-22T10:39:01;1239.72;;;999.90;;
21213;SDS011;10764;50.850;2.904;2022-07-22T10:41:37;1236.80;;;999.90;;
21213;SDS011;10764;50.850;2.904;2022-07-22T10:44:07;1239.68;;;999.90;;
21213;SDS011;10764;50.850;2.904;2022-07-22T10:49:18;1241.68;;;999.90;;
21213;SDS011;10764;50.850;2.904;2022-07-22T10:57:57;1234.53;;;999.90;;
21213;SDS011;10764;50.850;2.904;2022-07-22T11:00:24;1235.07;;;999.90;;
21213;SDS011;10764;50.850;2.904;2022-07-22T11:02:52;1235.88;;;999.90;;
21213;SDS011;10764;50.850;2.904;2022-07-22T11:05:26;1237.27;;;999.90;;
21213;SDS011;10764;50.850;2.904;2022-07-22T11:07:53;1232.53;;;999.90;;
21213;SDS011;10764;50.850;2.904;2022-07-22T11:10:20;1229.38;;;999.90;;
21213;SDS011;10764;50.850;2.904;2022-07-22T11:12:48;1226.93;;;999.90;;
21213;SDS011;10764;50.850;2.904;2022-07-22T11:15:16;1237.10;;;999.90;;
21213;SDS011;10764;50.850;2.904;2022-07-22T11:17:44;1239.57;;;999.90;;
21213;SDS011;10764;50.850;2.904;2022-07-22T11:20:11;1240.35;;;999.90;;
21213;SDS011;10764;50.850;2.904;2022-07-22T11:22:39;1238.63;;;999.90;;
21213;SDS011;10764;50.850;2.904;2022-07-22T11:25:08;1234.97;;;999.90;;
21213;SDS011;10764;50.850;2.904;2022-07-22T11:27:36;1234.95;;;999.90;;
21213;SDS011;10764;50.850;2.904;2022-07-22T11:30:03;1235.93;;;999.90;;
21213;SDS011;10764;50.850;2.904;2022-07-22T11:32:33;1237.97;;;999.90;;
21213;SDS011;10764;50.850;2.904;2022-07-22T11:35:10;1238.78;;;999.90;;
21213;SDS011;10764;50.850;2.904;2022-07-22T11:37:38;1236.13;;;999.90;;
21213;SDS011;10764;50.850;2.904;2022-07-22T11:40:05;1237.75;;;999.90;;
21213;SDS011;10764;50.850;2.904;2022-07-22T11:42:34;1235.30;;;999.90;;
21213;SDS011;10764;50.850;2.904;2022-07-22T11:45:01;1235.80;;;999.90;;
21213;SDS011;10764;50.850;2.904;2022-07-22T11:47:29;1232.33;;;999.90;;
21213;SDS011;10764;50.850;2.904;2022-07-22T11:49:56;1236.18;;;999.90;;
21213;SDS011;10764;50.850;2.904;2022-07-22T11:52:23;1234.85;;;999.90;;
21213;SDS011;10764;50.850;2.904;2022-07-22T11:54:49;1233.07;;;999.90;;
21213;SDS011;10764;50.850;2.904;2022-07-22T11:57:16;1238.65;;;999.90;;
21213;SDS011;10764;50.850;2.904;2022-07-22T11:59:43;1234.97;;;999.90;;
21213;SDS011;10764;50.850;2.904;2022-07-22T12:02:10;1239.00;;;999.90;;
21213;SDS011;10764;50.850;2.904;2022-07-22T12:04:40;1233.72;;;999.90;;
21213;SDS011;10764;50.850;2.904;2022-07-22T12:07:09;1233.38;;;999.90;;
21213;SDS011;10764;50.850;2.904;2022-07-22T12:09:37;1234.93;;;999.90;;
21213;SDS011;10764;50.850;2.904;2022-07-22T12:12:05;1234.72;;;999.90;;
21213;SDS011;10764;50.850;2.904;2022-07-22T12:14:33;1234.47;;;999.90;;
21213;SDS011;10764;50.850;2.904;2022-07-22T12:17:07;1236.65;;;999.90;;
21213;SDS011;10764;50.850;2.904;2022-07-22T12:19:36;1233.22;;;999.90;;
21213;SDS011;10764;50.850;2.904;2022-07-22T12:22:06;1235.13;;;999.90;;
21213;SDS011;10764;50.850;2.904;2022-07-22T12:24:43;1236.55;;;999.90;;
21213;SDS011;10764;50.850;2.904;2022-07-22T12:29:46;1232.07;;;999.90;;
21213;SDS011;10764;50.850;2.904;2022-07-22T12:32:15;1234.05;;;999.90;;
21213;SDS011;10764;50.850;2.904;2022-07-22T12:37:30;1235.18;;;999.90;;
21213;SDS011;10764;50.850;2.904;2022-07-22T12:40:05;1232.57;;;999.90;;
21213;SDS011;10764;50.850;2.904;2022-07-22T12:42:34;1223.95;;;999.90;;
21213;SDS011;10764;50.850;2.904;2022-07-22T12:45:07;1221.95;;;999.90;;
21213;SDS011;10764;50.850;2.904;2022-07-22T12:52:57;1221.10;;;999.90;;
21213;SDS011;10764;50.850;2.904;2022-07-22T12:55:51;1228.60;;;999.90;;
21213;SDS011;10764;50.850;2.904;2022-07-22T12:58:25;1229.20;;;999.90;;
21213;SDS011;10764;50.850;2.904;2022-07-22T13:00:55;1227.88;;;999.90;;
21213;SDS011;10764;50.850;2.904;2022-07-22T13:03:23;1224.45;;;999.90;;
21213;SDS011;10764;50.850;2.904;2022-07-22T13:05:54;1224.90;;;999.90;;
21213;SDS011;10764;50.850;2.904;2022-07-22T13:08:24;1228.97;;;999.90;;
21213;SDS011;10764;50.850;2.904;2022-07-22T13:11:05;1225.60;;;999.90;;
21213;SDS011;10764;50.850;2.904;2022-07-22T13:13:32;1225.45;;;999.90;;
21213;SDS011;10764;50.850;2.904;2022-07-22T13:15:59;1228.47;;;999.90;;
21213;SDS011;10764;50.850;2.904;2022-07-22T13:18:26;1215.35;;;999.90;;
21213;SDS011;10764;50.850;2.904;2022-07-22T13:20:53;1211.20;;;999.90;;
21213;SDS011;10764;50.850;2.904;2022-07-22T13:23:20;1212.60;;;999.90;;
21213;SDS011;10764;50.850;2.904;2022-07-22T13:25:47;1215.77;;;999.90;;
21213;SDS011;10764;50.850;2.904;2022-07-22T13:28:20;1217.03;;;999.90;;
21213;SDS011;10764;50.850;2.904;2022-07-22T13:30:47;1215.75;;;999.90;;
21213;SDS011;10764;50.850;2.904;2022-07-22T13:33:14;1221.80;;;999.90;;
21213;SDS011;10764;50.850;2.904;2022-07-22T13:35:43;1225.90;;;999.90;;
21213;SDS011;10764;50.850;2.904;2022-07-22T13:38:10;1222.63;;;999.90;;
21213;SDS011;10764;50.850;2.904;2022-07-22T13:40:44;1225.77;;;999.90;;
21213;SDS011;10764;50.850;2.904;2022-07-22T13:43:18;1221.70;;;999.90;;
21213;SDS011;10764;50.850;2.904;2022-07-22T13:45:46;1231.70;;;999.90;;
21213;SDS011;10764;50.850;2.904;2022-07-22T13:48:13;1223.33;;;999.90;;
21213;SDS011;10764;50.850;2.904;2022-07-22T13:50:40;1229.40;;;999.90;;
21213;SDS011;10764;50.850;2.904;2022-07-22T13:53:07;1226.55;;;999.90;;
21213;SDS011;10764;50.850;2.904;2022-07-22T13:55:33;1229.17;;;999.90;;
21213;SDS011;10764;50.850;2.904;2022-07-22T13:58:00;1227.22;;;999.90;;
21213;SDS011;10764;50.850;2.904;2022-07-22T14:00:28;1228.40;;;999.90;;
21213;SDS011;10764;50.850;2.904;2022-07-22T14:02:54;1227.43;;;999.90;;
21213;SDS011;10764;50.850;2.904;2022-07-22T14:05:21;1233.80;;;999.90;;
21213;SDS011;10764;50.850;2.904;2022-07-22T14:07:48;1237.45;;;999.90;;
21213;SDS011;10764;50.850;2.904;2022-07-22T14:10:17;1231.63;;;999.90;;
21213;SDS011;10764;50.850;2.904;2022-07-22T14:12:45;1235.97;;;999.90;;
21213;SDS011;10764;50.850;2.904;2022-07-22T14:15:12;1230.90;;;999.90;;
21213;SDS011;10764;50.850;2.904;2022-07-22T14:17:41;1230.47;;;999.90;;
21213;SDS011;10764;50.850;2.904;2022-07-22T14:20:08;1231.78;;;999.90;;
21213;SDS011;10764;50.850;2.904;2022-07-22T14:22:36;1236.10;;;999.90;;